Koloa, Hawaii
Current Conditions -  °F | °C
As of 3:53 PM on Saturday 25 Oct 2014 (Local Time) from PHLI Reporting Station
Broken Clouds Broken Clouds  
Wind Chill: 82°   Ceiling: 5000
Heat Index: 87°   Visibility: 10mi
Dew Point: 72°   Wind: 9mph
Humidity: 71%   Direction: 30°NNE
Pressure: 29.98"   Gusts: NA
Location:  21.9°N, 159.45°W
Report Text: PHLI 260153Z 03008KT 10SM BKN050 28/22 A2998 RMK AO2 SLP150 T02780222
Loading
Personal Weather Stations






























Interactive Weather Map
Tropical Storm Tracking
New forecast layout! Learn more

10-Day Weather Forecast

Advertisements
Track Severe Weather on mobile